createdAt,value
2023-03-17T00:01:25.194Z,3.19
2023-03-17T00:05:31.258Z,3.17
2023-03-17T00:09:34.073Z,3.13
2023-03-17T00:13:35.515Z,3.10
2023-03-17T00:17:37.054Z,3.15
2023-03-17T00:21:38.626Z,3.14
2023-03-17T00:25:41.453Z,3.09
2023-03-17T00:29:42.872Z,3.01
2023-03-17T00:33:45.444Z,3.03
2023-03-17T00:37:46.911Z,2.97
2023-03-17T00:41:49.655Z,2.99
2023-03-17T00:45:51.173Z,2.96
2023-03-17T00:49:52.710Z,2.98
2023-03-17T00:53:54.124Z,2.93
2023-03-17T00:57:56.907Z,2.94
2023-03-17T01:01:58.490Z,2.89
2023-03-17T01:06:02.661Z,2.87
2023-03-17T01:10:12.881Z,2.84
2023-03-17T01:14:16.361Z,2.83
2023-03-17T01:18:20.795Z,2.85
2023-03-17T01:22:22.239Z,2.85
2023-03-17T01:26:25.975Z,2.83
2023-03-17T01:30:31.668Z,2.79
2023-03-17T01:34:33.307Z,2.75
2023-03-17T01:38:34.725Z,2.67
2023-03-17T01:42:36.414Z,2.64
2023-03-17T01:46:39.181Z,2.71
2023-03-17T01:50:41.021Z,2.72
2023-03-17T01:54:45.392Z,2.70
2023-03-17T01:58:49.713Z,2.75
2023-03-17T02:02:54.390Z,2.71
2023-03-17T02:06:58.505Z,2.75
2023-03-17T02:11:00.714Z,2.75
2023-03-17T02:15:02.534Z,2.69
2023-03-17T02:19:05.313Z,2.83
2023-03-17T02:23:08.105Z,2.89
2023-03-17T02:27:13.485Z,2.91
2023-03-17T02:31:15.400Z,2.96
2023-03-17T02:35:18.112Z,3.09
2023-03-17T02:39:20.864Z,3.08
2023-03-17T02:43:22.306Z,3.01
2023-03-17T02:47:23.761Z,3.03
2023-03-17T02:51:25.194Z,3.06
2023-03-17T02:55:27.971Z,3.09
2023-03-17T02:59:29.759Z,3.06
2023-03-17T03:03:31.267Z,3.09
2023-03-17T03:07:33.309Z,3.19
2023-03-17T03:11:36.093Z,3.18
2023-03-17T03:15:37.578Z,3.08
2023-03-17T03:19:39.231Z,3.05
2023-03-17T03:23:40.803Z,3.02
2023-03-17T03:27:43.576Z,3.03
2023-03-17T03:31:45.021Z,3.07
2023-03-17T03:35:46.575Z,3.00
2023-03-17T03:39:48.033Z,2.99
2023-03-17T03:43:51.975Z,3.01
2023-03-17T03:47:53.403Z,2.98
2023-03-17T03:51:54.823Z,2.92
2023-03-17T03:55:56.441Z,2.89
2023-03-17T03:59:59.233Z,2.92
2023-03-17T04:04:00.901Z,2.91
2023-03-17T04:08:02.340Z,2.89
2023-03-17T04:12:04.351Z,2.87
2023-03-17T04:16:07.764Z,2.78
2023-03-17T04:20:11.010Z,2.77
2023-03-17T04:24:12.482Z,2.83
2023-03-17T04:28:13.894Z,2.79
2023-03-17T04:32:16.717Z,2.75
2023-03-17T04:36:19.238Z,2.64
2023-03-17T04:40:20.985Z,2.62
2023-03-17T04:44:22.404Z,2.57
2023-03-17T04:48:25.180Z,2.49
2023-03-17T04:52:26.820Z,2.47
2023-03-17T04:56:31.145Z,2.46
2023-03-17T05:00:33.338Z,2.50
2023-03-17T05:04:36.109Z,2.51
2023-03-17T05:08:37.503Z,2.49
2023-03-17T05:12:38.939Z,2.47
2023-03-17T05:16:40.390Z,2.50
2023-03-17T05:20:43.188Z,2.46
2023-03-17T05:24:44.612Z,2.42
2023-03-17T05:28:46.088Z,2.44
2023-03-17T05:32:47.566Z,2.48
2023-03-17T05:36:50.449Z,2.48
2023-03-17T05:40:51.972Z,2.50
2023-03-17T05:44:53.388Z,2.46
2023-03-17T05:48:54.801Z,2.45
2023-03-17T05:52:57.591Z,2.46
2023-03-17T05:56:59.000Z,2.45
2023-03-17T06:01:00.548Z,2.49
2023-03-17T06:05:02.024Z,2.52
2023-03-17T06:09:04.786Z,2.44
2023-03-17T06:13:06.208Z,2.52
2023-03-17T06:17:07.983Z,2.53
2023-03-17T06:21:09.848Z,2.53
2023-03-17T06:25:13.167Z,2.60
2023-03-17T06:29:14.575Z,2.64
2023-03-17T06:33:16.064Z,2.69
2023-03-17T06:37:17.684Z,2.74
2023-03-17T06:41:20.464Z,2.85
2023-03-17T06:45:21.907Z,2.97
2023-03-17T06:49:23.334Z,3.10
2023-03-17T06:53:24.871Z,3.20
2023-03-17T06:57:27.979Z,3.28
2023-03-17T07:01:29.440Z,3.32
2023-03-17T07:05:31.221Z,3.42
2023-03-17T07:09:33.865Z,3.51
2023-03-17T07:13:36.624Z,3.61
2023-03-17T07:17:38.281Z,3.77
2023-03-17T07:21:39.711Z,3.98
2023-03-17T07:25:41.171Z,4.17
2023-03-17T07:29:43.999Z,4.18
2023-03-17T07:33:45.454Z,4.26
2023-03-17T07:37:46.906Z,4.18
2023-03-17T07:41:48.349Z,4.08
2023-03-17T07:45:51.181Z,4.05
2023-03-17T07:49:52.640Z,4.06
2023-03-17T07:53:54.339Z,4.12
2023-03-17T07:57:56.093Z,4.19
2023-03-17T08:01:59.285Z,4.28
2023-03-17T08:06:00.991Z,4.45
2023-03-17T08:10:02.445Z,4.58
2023-03-17T08:14:04.168Z,4.87
2023-03-17T08:18:07.102Z,5.21
2023-03-17T08:22:08.554Z,5.46
2023-03-17T08:26:10.055Z,5.56
2023-03-17T08:30:12.725Z,5.70
2023-03-17T08:34:15.592Z,5.84
2023-03-17T08:38:17.037Z,5.95
2023-03-17T08:42:18.484Z,6.05
2023-03-17T08:46:22.867Z,6.00
2023-03-17T08:50:26.143Z,6.04
2023-03-17T08:54:27.585Z,6.09
2023-03-17T08:58:29.169Z,6.23
2023-03-17T09:02:30.610Z,6.44
2023-03-17T09:06:33.413Z,6.65
2023-03-17T09:10:35.079Z,6.74
2023-03-17T09:14:43.524Z,6.84
2023-03-17T09:18:46.907Z,6.97
2023-03-17T09:22:50.021Z,7.16
2023-03-17T09:26:51.427Z,7.28
2023-03-17T09:30:58.143Z,7.53
2023-03-17T09:34:59.593Z,7.58
2023-03-17T09:39:02.385Z,7.65
2023-03-17T09:43:11.908Z,7.75
2023-03-17T09:47:30.110Z,7.98
2023-03-17T09:51:32.203Z,7.98
2023-03-17T09:55:36.795Z,8.14
2023-03-17T09:59:41.949Z,8.28
2023-03-17T10:03:43.445Z,8.33
2023-03-17T10:07:49.900Z,8.36
2023-03-17T10:12:02.138Z,8.56
2023-03-17T10:16:07.782Z,8.64
2023-03-17T10:20:15.917Z,8.75
2023-03-17T10:24:18.957Z,8.89
2023-03-17T10:28:27.641Z,9.06
2023-03-17T10:32:31.057Z,9.10
2023-03-17T10:36:34.872Z,9.33
2023-03-17T10:40:36.327Z,9.45
2023-03-17T10:44:46.648Z,9.70
2023-03-17T10:48:53.170Z,9.85
2023-03-17T10:52:59.119Z,9.99
2023-03-17T10:57:02.977Z,10.26
2023-03-17T11:01:15.170Z,10.17
2023-03-17T11:05:22.254Z,10.05
2023-03-17T11:09:24.614Z,10.14
2023-03-17T11:13:29.668Z,10.28
2023-03-17T11:17:39.343Z,10.48
2023-03-17T11:21:50.920Z,10.56
2023-03-17T11:26:02.445Z,10.63
2023-03-17T11:30:19.773Z,10.90
2023-03-17T11:34:35.844Z,10.92
2023-03-17T11:38:43.798Z,11.26
2023-03-17T11:42:54.754Z,11.36
2023-03-17T11:47:06.057Z,11.46
2023-03-17T11:51:15.960Z,11.75
2023-03-17T11:55:22.822Z,11.78
2023-03-17T11:59:29.870Z,11.54
2023-03-17T12:03:40.097Z,11.73
2023-03-17T12:07:47.414Z,11.87
2023-03-17T12:11:50.706Z,11.82
2023-03-17T12:15:57.313Z,11.85
2023-03-17T12:20:07.191Z,12.03
2023-03-17T12:24:15.166Z,12.22
2023-03-17T12:28:21.461Z,12.42
2023-03-17T12:32:28.329Z,12.52
2023-03-17T12:36:29.959Z,12.65
2023-03-17T12:40:37.415Z,12.60
2023-03-17T12:44:58.225Z,12.58
2023-03-17T12:49:27.034Z,12.60
2023-03-17T12:53:30.828Z,12.61
2023-03-17T12:57:39.775Z,12.50
2023-03-17T13:01:44.407Z,12.41
2023-03-17T13:05:47.550Z,12.47
2023-03-17T13:10:09.443Z,12.62
2023-03-17T13:14:24.735Z,12.77
2023-03-17T13:18:50.162Z,12.58
2023-03-17T13:23:12.867Z,12.65
2023-03-17T13:27:34.996Z,12.56
2023-03-17T13:31:37.873Z,12.78
2023-03-17T13:35:43.060Z,12.67
2023-03-17T13:40:09.362Z,12.95
2023-03-17T13:44:38.212Z,13.22
2023-03-17T13:48:41.303Z,13.24
2023-03-17T13:52:48.434Z,12.83
2023-03-17T13:56:50.635Z,12.62
2023-03-17T14:00:59.600Z,12.63
2023-03-17T14:05:05.301Z,12.41
2023-03-17T14:09:16.660Z,12.25
2023-03-17T14:13:22.919Z,12.31
2023-03-17T14:17:27.944Z,12.28
2023-03-17T14:21:32.851Z,12.13
2023-03-17T14:25:36.480Z,12.31
2023-03-17T14:29:38.047Z,12.62
2023-03-17T14:33:41.235Z,12.49
2023-03-17T14:37:44.277Z,12.50
2023-03-17T14:41:45.717Z,12.00
2023-03-17T14:45:50.089Z,12.08
2023-03-17T14:49:53.775Z,11.93
2023-03-17T14:54:00.470Z,11.78
2023-03-17T14:58:08.328Z,11.72
2023-03-17T15:02:20.830Z,11.85
2023-03-17T15:06:48.981Z,11.71
2023-03-17T15:11:21.639Z,11.57
2023-03-17T15:15:43.399Z,11.40
2023-03-17T15:20:12.282Z,11.38
2023-03-17T15:24:38.883Z,11.20
2023-03-17T15:29:01.995Z,11.09
2023-03-17T15:33:35.680Z,10.96
2023-03-17T15:37:57.771Z,10.87
2023-03-17T15:42:23.309Z,10.79
2023-03-17T15:46:46.595Z,10.78
2023-03-17T15:51:10.531Z,10.72
2023-03-17T15:55:32.284Z,10.62
2023-03-17T15:59:54.087Z,10.60
2023-03-17T16:04:17.302Z,10.59
2023-03-17T16:08:39.120Z,10.58
2023-03-17T16:13:00.891Z,10.58
2023-03-17T16:17:26.888Z,10.53
2023-03-17T16:21:51.146Z,10.53
2023-03-17T16:26:16.069Z,10.40
2023-03-17T16:30:39.920Z,10.40
2023-03-17T16:35:01.683Z,10.24
2023-03-17T16:39:24.808Z,10.17
2023-03-17T16:43:50.278Z,10.04
2023-03-17T16:48:14.176Z,9.93
2023-03-17T16:52:35.965Z,9.76
2023-03-17T16:56:59.367Z,9.80
2023-03-17T17:01:23.638Z,9.70
2023-03-17T17:05:45.847Z,9.60
2023-03-17T17:10:08.197Z,9.58
2023-03-17T17:14:31.286Z,9.65
2023-03-17T17:18:53.253Z,9.62
2023-03-17T17:23:17.930Z,9.60
2023-03-17T17:27:42.002Z,9.53
2023-03-17T17:32:05.790Z,9.36
2023-03-17T17:36:27.560Z,9.22
2023-03-17T17:40:50.039Z,9.11
2023-03-17T17:45:12.785Z,9.09
2023-03-17T17:49:35.898Z,9.00
2023-03-17T17:53:57.662Z,8.96
2023-03-17T17:58:21.732Z,8.98
2023-03-17T18:02:44.392Z,8.93
2023-03-17T18:07:07.757Z,8.87
2023-03-17T18:11:29.534Z,8.87
2023-03-17T18:15:51.471Z,8.90
2023-03-17T18:20:16.035Z,8.80
2023-03-17T18:24:39.116Z,8.75
2023-03-17T18:29:01.420Z,8.54
2023-03-17T18:33:23.224Z,8.49
2023-03-17T18:37:45.123Z,8.35
2023-03-17T18:42:08.954Z,8.40
2023-03-17T18:46:30.615Z,8.49
2023-03-17T18:50:52.395Z,8.46
2023-03-17T18:55:14.995Z,8.35
2023-03-17T18:59:38.177Z,8.38
2023-03-17T19:04:00.064Z,8.32
2023-03-17T19:08:22.520Z,8.30
2023-03-17T19:12:45.501Z,8.21
2023-03-17T19:17:08.759Z,8.27
2023-03-17T19:21:30.578Z,8.21
2023-03-17T19:25:52.641Z,8.08
2023-03-17T19:30:15.094Z,8.00
2023-03-17T19:34:38.302Z,8.03
2023-03-17T19:39:00.185Z,7.99
2023-03-17T19:43:38.975Z,8.05
2023-03-17T19:48:01.725Z,7.91
2023-03-17T19:52:24.871Z,7.89
2023-03-17T19:56:46.620Z,7.82
2023-03-17T20:01:08.489Z,7.86
2023-03-17T20:05:30.324Z,7.90
2023-03-17T20:09:53.483Z,7.83
2023-03-17T20:14:15.247Z,7.79
2023-03-17T20:18:37.006Z,7.83
2023-03-17T20:22:58.778Z,7.82
2023-03-17T20:27:21.879Z,7.85
2023-03-17T20:31:43.681Z,7.72
2023-03-17T20:36:06.489Z,7.78
2023-03-17T20:40:28.552Z,7.83
2023-03-17T20:44:51.822Z,7.78
2023-03-17T20:49:13.603Z,7.74
2023-03-17T20:53:35.372Z,7.73
2023-03-17T20:57:57.128Z,7.67
2023-03-17T21:02:20.276Z,7.58
2023-03-17T21:06:42.352Z,7.58
2023-03-17T21:11:04.646Z,7.58
2023-03-17T21:15:26.927Z,7.66
2023-03-17T21:19:50.128Z,7.70
2023-03-17T21:24:23.662Z,7.70
2023-03-17T21:28:45.562Z,7.75
2023-03-17T21:33:07.340Z,7.71
2023-03-17T21:37:30.503Z,7.71
2023-03-17T21:41:52.584Z,7.70
2023-03-17T21:46:14.469Z,7.61
2023-03-17T21:50:36.374Z,7.57
2023-03-17T21:54:59.499Z,7.59
2023-03-17T21:59:21.247Z,7.60
2023-03-17T22:03:43.675Z,7.52
2023-03-17T22:08:06.042Z,7.50
2023-03-17T22:12:29.133Z,7.58
2023-03-17T22:16:50.969Z,7.55
2023-03-17T22:21:12.876Z,7.47
2023-03-17T22:25:34.670Z,7.43
2023-03-17T22:29:57.794Z,7.38
2023-03-17T22:34:19.566Z,7.44
2023-03-17T22:38:41.823Z,7.43
2023-03-17T22:43:03.636Z,7.41
2023-03-17T22:47:27.068Z,7.38
2023-03-17T22:51:50.004Z,7.37
2023-03-17T22:56:13.234Z,7.32
2023-03-17T23:00:35.037Z,7.29
2023-03-17T23:04:58.158Z,7.23
2023-03-17T23:09:20.463Z,7.15
2023-03-17T23:13:42.231Z,7.15
2023-03-17T23:18:04.556Z,7.02
2023-03-17T23:22:27.759Z,6.95
2023-03-17T23:26:49.550Z,6.86
2023-03-17T23:31:11.353Z,6.93
2023-03-17T23:35:33.265Z,6.83
2023-03-17T23:39:56.564Z,6.79
2023-03-17T23:44:18.335Z,6.73
2023-03-17T23:48:42.527Z,6.70
2023-03-17T23:53:04.429Z,6.67
2023-03-17T23:57:27.593Z,6.53
